Time;durP1;ratioP1;P1;durP2;ratioP2;P2;SDS_P1;SDS_P2;PMS_P1;PMS_P2;Temp;Humidity;BMP_temperature;BMP_pressure;BME280_temperature;BME280_humidity;BME280_pressure;Samples;Min_cycle;Max_cycle;Signal;HPM_P1;HPM_P2
2022/11/16 00:01:51;;;;;;;4.43;2.60;;;12.20;99.90;;;;;;7390395;19;20130;-73
2022/11/16 00:04:17;;;;;;;3.85;2.72;;;12.30;99.90;;;;;;7387239;19;20134;-73
2022/11/16 00:06:42;;;;;;;5.10;2.87;;;12.30;99.90;;;;;;7387289;19;20151;-75
2022/11/16 00:09:22;;;;;;;4.73;2.90;;;12.50;99.90;;;;;;7388436;19;20134;-73
2022/11/16 00:11:50;;;;;;;6.40;2.70;;;12.60;99.90;;;;;;7386787;19;20146;-74
2022/11/16 00:14:17;;;;;;;3.83;2.70;;;12.40;99.90;;;;;;7389375;19;20122;-74
2022/11/16 00:16:43;;;;;;;5.50;2.83;;;12.40;99.90;;;;;;7389176;19;20142;-73
2022/11/16 00:19:10;;;;;;;6.35;3.13;;;12.40;99.90;;;;;;7387874;19;20157;-72
2022/11/16 00:21:36;;;;;;;6.10;3.10;;;12.60;99.90;;;;;;7387989;19;20154;-75
2022/11/16 00:24:03;;;;;;;3.83;2.77;;;12.60;99.90;;;;;;7388788;19;20143;-73
2022/11/16 00:26:29;;;;;;;3.90;3.10;;;12.60;99.90;;;;;;7387147;19;20609;-74
2022/11/16 00:28:55;;;;;;;4.40;3.07;;;12.70;99.90;;;;;;7386818;19;20134;-74
2022/11/16 00:31:21;;;;;;;6.53;3.20;;;12.60;99.90;;;;;;7387928;19;20186;-73
2022/11/16 00:33:48;;;;;;;3.60;2.93;;;12.60;99.90;;;;;;7389051;19;20161;-73
2022/11/16 00:36:14;;;;;;;3.77;2.60;;;12.50;99.90;;;;;;7388594;19;20169;-74
2022/11/16 00:38:40;;;;;;;3.17;2.60;;;12.30;99.90;;;;;;7386696;19;20154;-75
2022/11/16 00:41:07;;;;;;;4.50;3.30;;;12.60;99.90;;;;;;7387169;19;20609;-74
2022/11/16 00:43:34;;;;;;;5.13;3.17;;;12.70;99.90;;;;;;7388477;19;20170;-74
2022/11/16 00:46:00;;;;;;;4.10;2.57;;;12.80;99.90;;;;;;7386326;19;20161;-74
2022/11/16 00:48:26;;;;;;;3.93;3.13;;;12.80;99.90;;;;;;7385221;19;20508;-74
2022/11/16 00:50:52;;;;;;;3.90;2.60;;;12.80;99.90;;;;;;7387287;19;20507;-74
2022/11/16 00:53:19;;;;;;;3.97;2.90;;;12.70;99.90;;;;;;7386481;19;20139;-74
2022/11/16 00:55:45;;;;;;;4.30;2.70;;;12.70;99.90;;;;;;7385120;19;20160;-74
2022/11/16 00:58:12;;;;;;;4.13;3.30;;;12.70;99.90;;;;;;7383664;19;20269;-73
2022/11/16 01:00:39;;;;;;;4.33;3.63;;;12.80;99.90;;;;;;7386239;19;20159;-74
2022/11/16 01:03:05;;;;;;;4.40;3.47;;;12.80;99.90;;;;;;7385746;19;20163;-73
2022/11/16 01:05:32;;;;;;;6.20;3.63;;;12.80;99.90;;;;;;7384643;19;20154;-72
2022/11/16 01:07:58;;;;;;;6.27;4.03;;;12.70;99.90;;;;;;7382329;19;20172;-74
2022/11/16 01:10:25;;;;;;;4.60;3.47;;;12.60;99.90;;;;;;7386836;19;20542;-73
2022/11/16 01:12:52;;;;;;;6.27;3.70;;;12.50;99.90;;;;;;7382096;19;20130;-74
2022/11/16 01:15:20;;;;;;;4.15;3.53;;;12.60;99.90;;;;;;7388102;19;20154;-74
2022/11/16 01:17:46;;;;;;;5.10;3.58;;;12.40;99.90;;;;;;7388070;19;20135;-73
2022/11/16 01:20:20;;;;;;;5.63;3.90;;;12.20;99.90;;;;;;7385369;19;20222;-74
2022/11/16 01:22:46;;;;;;;5.90;3.70;;;12.30;99.90;;;;;;7386962;19;20152;-74
2022/11/16 01:25:12;;;;;;;9.63;3.97;;;12.20;99.90;;;;;;7385463;19;20229;-74
2022/11/16 01:27:39;;;;;;;5.20;3.50;;;12.30;99.90;;;;;;7385168;19;20144;-73
2022/11/16 01:30:06;;;;;;;6.20;3.53;;;12.40;99.90;;;;;;7379865;19;20517;-74
2022/11/16 01:32:32;;;;;;;5.87;3.57;;;12.30;99.90;;;;;;7386643;19;20163;-74
2022/11/16 01:34:58;;;;;;;6.37;4.07;;;12.40;99.90;;;;;;7387014;19;20547;-74
2022/11/16 01:37:25;;;;;;;5.80;3.53;;;12.50;99.90;;;;;;7383792;19;20253;-73
2022/11/16 01:39:51;;;;;;;3.93;3.37;;;12.00;99.90;;;;;;7387213;19;20505;-74
2022/11/16 01:42:18;;;;;;;4.73;3.20;;;12.10;99.90;;;;;;7383346;19;20157;-75
2022/11/16 01:44:44;;;;;;;5.00;2.97;;;12.40;99.90;;;;;;7384350;19;20535;-73
2022/11/16 01:47:13;;;;;;;6.00;3.80;;;12.50;99.90;;;;;;7385347;19;20147;-74
2022/11/16 01:49:46;;;;;;;9.60;4.00;;;12.60;99.90;;;;;;7382953;19;20158;-74
2022/11/16 01:52:17;;;;;;;4.47;3.33;;;12.60;99.90;;;;;;7384612;19;20170;-74
2022/11/16 01:54:45;;;;;;;6.33;3.90;;;12.70;99.90;;;;;;7385516;19;20250;-73
2022/11/16 01:57:19;;;;;;;5.93;3.90;;;12.60;99.90;;;;;;7384802;19;20154;-74
2022/11/16 01:59:47;;;;;;;4.97;3.80;;;12.70;99.90;;;;;;7382674;19;20171;-74
2022/11/16 02:02:14;;;;;;;5.03;3.73;;;12.60;99.90;;;;;;7384080;19;20138;-72
2022/11/16 02:04:40;;;;;;;5.43;4.10;;;12.60;99.90;;;;;;7382710;19;20193;-73
2022/11/16 02:10:37;;;;;;;5.60;3.33;;;12.50;99.90;;;;;;7386438;19;20198;-74
2022/11/16 02:13:33;;;;;;;6.57;3.60;;;12.20;99.90;;;;;;7385877;19;20141;-73
2022/11/16 02:16:18;;;;;;;5.87;3.53;;;12.30;99.90;;;;;;7387592;19;20131;-74
2022/11/16 02:18:55;;;;;;;3.13;2.80;;;12.20;99.90;;;;;;7387117;19;20636;-73
2022/11/16 02:21:40;;;;;;;3.87;2.63;;;12.00;99.90;;;;;;7387636;19;20130;-73
2022/11/16 02:24:29;;;;;;;3.33;2.47;;;12.20;99.90;;;;;;7386295;19;20145;-75
2022/11/16 02:27:22;;;;;;;2.42;2.22;;;12.20;99.90;;;;;;7386549;19;20147;-75
2022/11/16 02:29:53;;;;;;;3.53;2.43;;;12.50;99.90;;;;;;7384688;19;20162;-73
2022/11/16 02:32:49;;;;;;;3.20;2.17;;;12.50;99.90;;;;;;7387438;19;20134;-72
2022/11/16 02:35:27;;;;;;;5.07;2.70;;;12.30;99.90;;;;;;7389142;19;20987;-74
2022/11/16 02:38:05;;;;;;;3.20;2.67;;;12.40;99.90;;;;;;7391896;19;20131;-74
2022/11/16 02:40:36;;;;;;;3.37;2.50;;;12.40;99.90;;;;;;7391222;19;20146;-72
2022/11/16 02:43:10;;;;;;;2.83;2.20;;;12.50;99.90;;;;;;7393396;19;20130;-74
2022/11/16 02:45:41;;;;;;;3.00;2.40;;;12.50;99.90;;;;;;7390890;19;20265;-73
2022/11/16 02:48:15;;;;;;;4.07;2.33;;;12.20;99.90;;;;;;7391188;19;20142;-74
2022/11/16 02:50:42;;;;;;;4.43;1.93;;;12.20;99.90;;;;;;7393341;19;20130;-74
2022/11/16 02:53:08;;;;;;;2.50;2.10;;;12.40;99.90;;;;;;7392131;19;20148;-73
2022/11/16 02:55:35;;;;;;;2.33;1.87;;;12.30;99.90;;;;;;7395457;19;20127;-74
2022/11/16 02:58:04;;;;;;;4.10;2.37;;;12.40;99.90;;;;;;7389508;19;20169;-74
2022/11/16 03:00:42;;;;;;;2.58;2.25;;;12.20;99.90;;;;;;7391777;19;20130;-74
2022/11/16 03:03:17;;;;;;;2.00;1.77;;;12.00;99.90;;;;;;7389920;19;20122;-73
2022/11/16 03:05:53;;;;;;;3.22;2.45;;;11.90;99.90;;;;;;7388057;19;20223;-73
2022/11/16 03:08:39;;;;;;;3.83;2.27;;;12.10;99.90;;;;;;7389123;19;20572;-74
2022/11/16 03:13:59;;;;;;;3.70;3.00;;;12.30;99.90;;;;;;7388889;19;20145;-74
2022/11/16 03:16:39;;;;;;;4.50;3.37;;;12.30;99.90;;;;;;7390954;19;20580;-75
2022/11/16 03:19:09;;;;;;;4.90;3.50;;;12.30;99.90;;;;;;7388997;19;20134;-74
2022/11/16 03:21:40;;;;;;;4.80;3.23;;;12.00;99.90;;;;;;7392735;19;20156;-73
2022/11/16 03:24:07;;;;;;;6.70;3.53;;;12.10;99.90;;;;;;7389201;19;20134;-75
2022/11/16 03:26:48;;;;;;;6.37;3.50;;;12.20;99.90;;;;;;7388225;19;20630;-73
2022/11/16 03:29:29;;;;;;;6.70;3.30;;;12.40;99.90;;;;;;7390163;19;20150;-80
2022/11/16 03:32:04;;;;;;;5.17;3.60;;;12.40;99.90;;;;;;7388422;19;20142;-78
2022/11/16 03:34:34;;;;;;;4.47;3.50;;;12.40;99.90;;;;;;7393257;19;20135;-77
2022/11/16 03:37:00;;;;;;;4.07;3.33;;;12.50;99.90;;;;;;7386707;19;20142;-80
2022/11/16 03:39:31;;;;;;;5.73;3.60;;;12.40;99.90;;;;;;7390790;19;20147;-74
2022/11/16 03:41:59;;;;;;;4.37;3.20;;;12.30;99.90;;;;;;7390910;19;20211;-74
2022/11/16 03:44:26;;;;;;;3.40;3.10;;;12.40;99.90;;;;;;7387200;19;20165;-73
2022/11/16 03:46:52;;;;;;;4.05;3.05;;;12.40;99.90;;;;;;7385835;19;20161;-74
2022/11/16 03:49:22;;;;;;;4.50;2.97;;;12.40;99.90;;;;;;7388004;19;20218;-74
2022/11/16 03:51:48;;;;;;;3.83;2.93;;;12.40;99.90;;;;;;7391471;19;20538;-74
2022/11/16 03:54:14;;;;;;;4.20;2.90;;;12.50;99.90;;;;;;7389252;19;20616;-74
2022/11/16 03:56:40;;;;;;;3.00;2.70;;;12.40;99.90;;;;;;7387159;19;20311;-75
2022/11/16 03:59:06;;;;;;;3.53;2.90;;;12.40;99.90;;;;;;7386974;19;20474;-74
2022/11/16 04:01:32;;;;;;;3.23;2.70;;;12.40;99.90;;;;;;7388726;19;20135;-74
2022/11/16 04:03:57;;;;;;;4.80;3.23;;;12.30;99.90;;;;;;7387108;19;20601;-73
2022/11/16 04:25:59;;;;;;;4.35;3.40;;;12.30;99.90;;;;;;7389236;19;20134;-74
2022/11/16 04:28:29;;;;;;;3.22;2.72;;;12.10;99.90;;;;;;7389196;19;20127;-73
2022/11/16 04:39:16;;;;;;;3.35;2.35;;;11.60;99.90;;;;;;7390520;19;20542;-74
2022/11/16 04:47:05;;;;;;;2.80;2.00;;;11.90;99.90;;;;;;7389093;19;20131;-73
2022/11/16 04:47:15;;;;;;;3.43;2.27;;;12.00;99.90;;;;;;7388511;19;20202;-73
2022/11/16 04:49:41;;;;;;;1.90;1.70;;;12.00;99.90;;;;;;7388070;19;20159;-74
2022/11/16 04:52:07;;;;;;;1.73;1.63;;;12.00;99.90;;;;;;7388906;19;20131;-74
2022/11/16 04:54:33;;;;;;;2.07;1.87;;;12.30;99.90;;;;;;7387831;19;20141;-74
2022/11/16 04:56:59;;;;;;;1.83;1.63;;;12.30;99.90;;;;;;7386873;19;20178;-75
2022/11/16 04:59:25;;;;;;;1.83;1.57;;;12.30;99.90;;;;;;7385737;19;20512;-74
2022/11/16 05:02:08;;;;;;;5.13;1.80;;;12.50;99.90;;;;;;7386614;19;20138;-73
2022/11/16 05:04:39;;;;;;;2.25;1.70;;;12.50;99.90;;;;;;7383975;19;20190;-74
2022/11/16 05:07:10;;;;;;;2.20;2.00;;;12.50;99.90;;;;;;7384727;19;20165;-74
2022/11/16 05:09:54;;;;;;;3.43;1.70;;;12.70;99.90;;;;;;7387167;19;20138;-74
2022/11/16 05:12:22;;;;;;;1.93;1.60;;;12.50;99.90;;;;;;7386042;19;20155;-74
2022/11/16 05:14:48;;;;;;;3.60;2.03;;;12.40;99.90;;;;;;7387398;19;20138;-75
2022/11/16 05:17:15;;;;;;;3.07;2.07;;;12.20;99.90;;;;;;7385557;19;20635;-74
2022/11/16 05:22:26;;;;;;;2.40;1.80;;;12.00;99.90;;;;;;7388079;19;20140;-73
2022/11/16 05:24:52;;;;;;;2.47;1.73;;;12.10;99.90;;;;;;7384523;19;20221;-74
2022/11/16 05:27:19;;;;;;;1.50;1.40;;;12.20;99.90;;;;;;7386814;19;20587;-74
2022/11/16 05:29:45;;;;;;;2.80;1.97;;;12.40;99.90;;;;;;7386648;19;20135;-76
2022/11/16 05:32:12;;;;;;;3.75;2.10;;;12.50;99.90;;;;;;7384532;19;20154;-75
2022/11/16 05:34:38;;;;;;;3.13;2.00;;;12.40;99.90;;;;;;7386986;19;20163;-74
2022/11/16 05:37:04;;;;;;;2.33;1.63;;;12.50;99.90;;;;;;7384839;19;20134;-73
2022/11/16 05:39:30;;;;;;;2.40;1.43;;;12.50;99.90;;;;;;7387219;19;20138;-74
2022/11/16 05:41:56;;;;;;;5.40;1.70;;;12.50;99.90;;;;;;7385932;19;20150;-74
2022/11/16 05:44:22;;;;;;;2.33;1.60;;;12.40;99.90;;;;;;7387037;19;20165;-75
2022/11/16 05:46:48;;;;;;;2.20;1.60;;;12.50;99.90;;;;;;7384209;19;20148;-75
2022/11/16 05:49:14;;;;;;;1.80;1.50;;;12.40;99.90;;;;;;7382709;19;20147;-75
2022/11/16 05:51:42;;;;;;;3.40;1.55;;;12.10;99.90;;;;;;7383577;19;20268;-73
2022/11/16 05:54:12;;;;;;;2.22;1.90;;;11.90;99.90;;;;;;7381375;19;20138;-75
2022/11/16 05:56:37;;;;;;;2.63;1.90;;;11.90;99.90;;;;;;7384005;19;20508;-73
2022/11/16 05:59:03;;;;;;;2.05;1.60;;;11.90;99.90;;;;;;7382340;19;20145;-74
2022/11/16 06:01:29;;;;;;;4.83;1.80;;;12.00;99.90;;;;;;7384410;19;20138;-74
2022/11/16 06:03:57;;;;;;;2.17;1.70;;;12.10;99.90;;;;;;7383406;19;20193;-75
2022/11/16 06:06:23;;;;;;;4.00;1.67;;;12.10;99.90;;;;;;7382735;19;20146;-73
2022/11/16 06:08:50;;;;;;;2.33;1.40;;;12.20;99.90;;;;;;7383547;19;20527;-74
2022/11/16 06:11:16;;;;;;;2.90;1.60;;;12.40;99.90;;;;;;7382257;19;20501;-75
2022/11/16 06:13:42;;;;;;;2.40;1.80;;;12.10;99.90;;;;;;7382140;19;20139;-74
2022/11/16 06:16:08;;;;;;;2.33;1.80;;;12.20;99.90;;;;;;7384376;19;20775;-74
2022/11/16 06:18:42;;;;;;;2.30;1.73;;;12.30;99.90;;;;;;7383540;19;20150;-75
2022/11/16 06:21:09;;;;;;;2.60;1.80;;;12.30;99.90;;;;;;7383885;19;20135;-73
2022/11/16 06:23:35;;;;;;;1.30;1.20;;;12.40;99.90;;;;;;7381944;19;20135;-74
2022/11/16 06:26:01;;;;;;;2.83;1.80;;;12.40;99.90;;;;;;7382866;19;20163;-74
2022/11/16 06:28:27;;;;;;;3.92;1.83;;;12.40;99.90;;;;;;7382048;19;20145;-74
2022/11/16 06:30:53;;;;;;;2.00;1.60;;;12.50;99.90;;;;;;7380749;19;20493;-74
2022/11/16 06:33:19;;;;;;;4.70;1.77;;;12.50;99.90;;;;;;7382635;19;20512;-76
2022/11/16 06:35:45;;;;;;;2.03;1.67;;;12.30;99.90;;;;;;7382891;19;20138;-76
2022/11/16 06:38:17;;;;;;;1.93;1.50;;;12.30;99.90;;;;;;7381374;19;20137;-74
2022/11/16 06:40:50;;;;;;;6.68;1.67;;;12.40;99.90;;;;;;7383613;19;20221;-74
2022/11/16 06:43:16;;;;;;;2.07;1.63;;;12.40;99.90;;;;;;7380908;19;20154;-75
2022/11/16 06:45:42;;;;;;;2.13;1.80;;;12.20;99.90;;;;;;7382551;19;20201;-76
2022/11/16 06:48:08;;;;;;;2.40;1.77;;;12.30;99.90;;;;;;7382631;19;20442;-75
2022/11/16 06:50:34;;;;;;;2.50;1.40;;;12.30;99.90;;;;;;7383588;19;20155;-75
2022/11/16 06:53:00;;;;;;;2.13;1.80;;;12.40;99.90;;;;;;7389246;19;20214;-75
2022/11/16 06:55:28;;;;;;;2.87;2.00;;;12.30;99.90;;;;;;7384017;19;20700;-73
2022/11/16 06:57:54;;;;;;;2.90;2.47;;;12.40;99.90;;;;;;7378789;19;20154;-75
2022/11/16 07:00:20;;;;;;;2.97;1.65;;;12.50;99.90;;;;;;7385689;19;20134;-75
2022/11/16 07:02:46;;;;;;;3.30;2.17;;;12.60;99.90;;;;;;7388396;19;20210;-75
2022/11/16 07:05:12;;;;;;;6.27;3.40;;;12.70;99.90;;;;;;7385587;19;20143;-75
2022/11/16 07:07:38;;;;;;;3.85;2.35;;;12.70;99.90;;;;;;7385610;19;20147;-74
2022/11/16 07:10:04;;;;;;;4.55;1.90;;;12.70;99.90;;;;;;7383534;19;20154;-73
2022/11/16 07:12:29;;;;;;;2.20;1.87;;;12.70;99.90;;;;;;7383921;19;20150;-72
2022/11/16 07:14:55;;;;;;;2.60;2.00;;;12.70;99.90;;;;;;7384292;19;20142;-74
2022/11/16 07:17:21;;;;;;;3.17;2.00;;;12.60;99.90;;;;;;7384488;19;20138;-73
2022/11/16 07:19:46;;;;;;;3.37;1.90;;;12.70;99.90;;;;;;7383202;19;20150;-73
2022/11/16 07:22:12;;;;;;;5.33;2.80;;;12.70;99.90;;;;;;7388547;19;20169;-74
2022/11/16 07:24:38;;;;;;;4.67;2.40;;;12.50;99.90;;;;;;7393005;19;20134;-75
2022/11/16 07:27:04;;;;;;;4.40;2.45;;;12.40;99.90;;;;;;7400655;19;20150;-73
2022/11/16 07:29:30;;;;;;;3.95;1.98;;;12.60;99.90;;;;;;7391519;19;20158;-76
2022/11/16 07:31:56;;;;;;;4.00;1.70;;;12.50;99.90;;;;;;7390116;19;20139;-75
2022/11/16 07:34:22;;;;;;;2.10;1.67;;;12.60;99.90;;;;;;7390633;19;20145;-74
2022/11/16 07:36:47;;;;;;;2.27;1.60;;;12.50;99.90;;;;;;7390061;19;20549;-73
2022/11/16 07:39:13;;;;;;;2.13;1.60;;;12.50;99.90;;;;;;7390382;19;20142;-74
2022/11/16 07:41:41;;;;;;;1.60;1.50;;;12.60;99.90;;;;;;7390636;19;20510;-74
2022/11/16 07:44:07;;;;;;;1.88;1.45;;;12.60;99.90;;;;;;7393914;19;20139;-75
2022/11/16 07:46:33;;;;;;;1.93;1.27;;;12.70;99.90;;;;;;7388930;19;20666;-74
2022/11/16 07:48:59;;;;;;;3.03;1.45;;;12.70;99.90;;;;;;7393720;19;20138;-74
2022/11/16 07:51:25;;;;;;;3.65;1.85;;;12.80;99.90;;;;;;7391480;19;20188;-75
2022/11/16 07:53:54;;;;;;;3.87;2.03;;;12.70;99.90;;;;;;7391347;19;20226;-75
2022/11/16 07:56:20;;;;;;;1.57;1.10;;;12.60;99.90;;;;;;7391189;19;20522;-75
2022/11/16 07:58:47;;;;;;;1.70;1.30;;;12.80;99.90;;;;;;7387005;19;20143;-75
2022/11/16 08:01:15;;;;;;;2.00;1.05;;;12.70;99.90;;;;;;7389801;19;20182;-74
2022/11/16 08:03:42;;;;;;;1.70;0.87;;;12.50;99.90;;;;;;7396446;19;20151;-76
2022/11/16 08:06:17;;;;;;;1.27;0.80;;;12.70;99.90;;;;;;7391771;19;20140;-75
2022/11/16 08:08:43;;;;;;;1.55;1.10;;;12.70;99.90;;;;;;7393800;19;20581;-75
2022/11/16 08:11:11;;;;;;;0.95;0.82;;;12.70;99.90;;;;;;7393500;19;20135;-74
2022/11/16 08:13:38;;;;;;;3.67;2.25;;;12.60;99.90;;;;;;7395924;19;20134;-74
2022/11/16 08:16:09;;;;;;;3.92;1.88;;;12.60;99.90;;;;;;7387705;19;20138;-75
2022/11/16 08:18:36;;;;;;;3.83;2.10;;;12.60;99.90;;;;;;7389082;19;20220;-75
2022/11/16 08:21:03;;;;;;;3.72;2.78;;;12.90;99.90;;;;;;7389602;19;20135;-75
2022/11/16 08:23:30;;;;;;;2.28;1.45;;;12.90;99.90;;;;;;7392607;19;20675;-75
2022/11/16 08:26:00;;;;;;;2.10;1.40;;;12.90;99.90;;;;;;7393114;19;20215;-74
2022/11/16 08:28:27;;;;;;;2.25;1.00;;;12.80;99.90;;;;;;7391908;19;20649;-74
2022/11/16 08:30:53;;;;;;;3.13;1.10;;;13.00;99.90;;;;;;7391934;19;20148;-73
2022/11/16 08:33:20;;;;;;;2.30;1.10;;;13.10;99.90;;;;;;7389892;19;20126;-74
2022/11/16 08:35:47;;;;;;;1.70;1.10;;;13.20;99.90;;;;;;7390206;19;20127;-73
2022/11/16 08:38:13;;;;;;;1.75;0.82;;;13.20;99.90;;;;;;7384549;19;20138;-75
2022/11/16 08:40:39;;;;;;;1.67;0.87;;;13.20;99.90;;;;;;7391451;19;20149;-73
2022/11/16 08:43:05;;;;;;;1.27;0.90;;;13.10;99.90;;;;;;7386719;19;20138;-74
2022/11/16 08:45:32;;;;;;;2.00;1.15;;;13.20;99.90;;;;;;7384216;19;20135;-74
2022/11/16 08:47:59;;;;;;;4.53;1.50;;;13.30;99.90;;;;;;7387357;19;20139;-73
2022/11/16 08:50:25;;;;;;;2.77;1.23;;;13.40;99.90;;;;;;7390411;19;20141;-74
2022/11/16 08:52:57;;;;;;;1.08;0.77;;;13.30;99.90;;;;;;7388070;19;20161;-73
2022/11/16 08:55:24;;;;;;;3.30;1.80;;;13.40;99.90;;;;;;7388190;19;20130;-73
2022/11/16 08:57:49;;;;;;;5.45;2.42;;;13.20;99.90;;;;;;7386902;19;20556;-73
2022/11/16 09:00:16;;;;;;;3.77;1.23;;;13.10;99.90;;;;;;7379119;19;20206;-73
2022/11/16 09:02:42;;;;;;;1.48;1.13;;;13.20;99.90;;;;;;7394207;19;20147;-74
2022/11/16 09:05:10;;;;;;;1.98;1.20;;;13.10;99.90;;;;;;7391772;19;20239;-73
2022/11/16 09:07:40;;;;;;;2.53;1.00;;;13.20;99.90;;;;;;7395181;19;20630;-72
2022/11/16 09:10:07;;;;;;;1.90;1.10;;;13.40;99.90;;;;;;7393987;19;20179;-73
2022/11/16 09:12:34;;;;;;;3.83;1.33;;;13.30;99.90;;;;;;7395088;19;20486;-74
2022/11/16 09:14:59;;;;;;;2.65;1.33;;;13.30;99.90;;;;;;7393305;19;20243;-74
2022/11/16 09:17:25;;;;;;;3.45;1.50;;;13.20;99.90;;;;;;7394684;19;20156;-74
2022/11/16 09:19:51;;;;;;;3.40;1.20;;;13.20;99.90;;;;;;7392311;19;20537;-73
2022/11/16 09:22:17;;;;;;;3.88;1.60;;;13.30;99.90;;;;;;7393193;19;20137;-73
2022/11/16 09:24:44;;;;;;;3.65;0.77;;;13.40;99.90;;;;;;7399232;19;20138;-74
2022/11/16 09:27:09;;;;;;;2.45;1.00;;;13.40;99.90;;;;;;7394278;19;20171;-73
2022/11/16 09:29:35;;;;;;;8.40;1.23;;;13.30;99.90;;;;;;7391038;19;20154;-73
2022/11/16 09:32:01;;;;;;;2.75;1.88;;;13.30;99.90;;;;;;7386726;19;20242;-74
2022/11/16 09:34:27;;;;;;;6.20;4.22;;;13.30;99.90;;;;;;7384456;19;20454;-72
2022/11/16 09:36:53;;;;;;;9.15;2.50;;;13.30;99.90;;;;;;7387797;19;20138;-72
2022/11/16 09:39:19;;;;;;;2.55;1.52;;;13.20;99.90;;;;;;7384752;19;20137;-73
2022/11/16 09:42:00;;;;;;;3.15;1.00;;;13.20;99.90;;;;;;7384363;19;20142;-74
2022/11/16 09:44:36;;;;;;;1.73;0.90;;;13.50;99.90;;;;;;7390701;19;20212;-74
2022/11/16 09:47:03;;;;;;;2.45;0.80;;;13.20;99.90;;;;;;7383025;19;20185;-72
2022/11/16 09:49:38;;;;;;;2.35;1.20;;;13.10;99.90;;;;;;7384686;19;20173;-73
2022/11/16 09:52:33;;;;;;;1.65;1.25;;;13.20;99.90;;;;;;7384862;19;20595;-72
2022/11/16 09:55:02;;;;;;;1.90;1.00;;;13.40;99.90;;;;;;7381167;19;20146;-74
2022/11/16 09:57:35;;;;;;;4.10;1.15;;;13.50;99.90;;;;;;7387769;19;20532;-73
2022/11/16 10:00:13;;;;;;;1.40;0.70;;;13.50;99.90;;;;;;7384853;19;20210;-74
2022/11/16 10:02:51;;;;;;;2.33;0.77;;;13.30;99.90;;;;;;7385810;19;20153;-74
2022/11/16 10:05:21;;;;;;;4.90;0.98;;;13.30;99.90;;;;;;7382181;19;20127;-73
2022/11/16 10:07:51;;;;;;;2.30;0.80;;;13.50;99.90;;;;;;7382833;19;20149;-73
2022/11/16 10:10:26;;;;;;;4.10;1.30;;;13.40;99.90;;;;;;7385460;19;20135;-73
2022/11/16 10:13:04;;;;;;;1.73;0.80;;;13.40;99.90;;;;;;7382873;19;20182;-73
2022/11/16 10:15:49;;;;;;;1.13;0.52;;;13.50;99.90;;;;;;7384244;19;20135;-72
2022/11/16 10:18:29;;;;;;;0.70;0.60;;;13.50;99.90;;;;;;7382238;19;20207;-73
2022/11/16 10:21:26;;;;;;;1.30;0.68;;;13.50;99.90;;;;;;7384547;19;20499;-74
2022/11/16 10:24:11;;;;;;;4.38;1.83;;;13.60;99.90;;;;;;7380273;19;20222;-74
2022/11/16 10:27:08;;;;;;;6.13;3.55;;;13.80;99.90;;;;;;7381842;19;20584;-73
2022/11/16 10:29:54;;;;;;;4.80;2.20;;;13.80;99.90;;;;;;7383508;19;20308;-74
2022/11/16 10:32:26;;;;;;;5.85;3.42;;;13.90;99.90;;;;;;7381496;19;20493;-72
2022/11/16 10:35:00;;;;;;;2.53;1.73;;;13.80;99.90;;;;;;7383743;19;20138;-73
2022/11/16 10:37:32;;;;;;;3.58;2.15;;;13.90;99.90;;;;;;7382836;19;20588;-73
2022/11/16 10:39:57;;;;;;;4.72;2.00;;;13.90;99.90;;;;;;7383952;19;20142;-72
2022/11/16 10:42:38;;;;;;;2.88;1.90;;;14.00;99.90;;;;;;7382521;19;20210;-74
2022/11/16 10:45:10;;;;;;;3.03;1.40;;;14.00;99.90;;;;;;7382187;19;20161;-74
2022/11/16 10:47:45;;;;;;;2.05;1.40;;;14.10;99.90;;;;;;7385952;19;20169;-74
2022/11/16 10:50:31;;;;;;;5.38;3.50;;;14.10;99.90;;;;;;7387274;19;20259;-73
2022/11/16 10:52:58;;;;;;;2.22;1.67;;;14.00;99.90;;;;;;7382811;19;20556;-74
2022/11/16 10:55:24;;;;;;;3.67;1.17;;;14.10;99.90;;;;;;7381811;19;20158;-75
2022/11/16 10:57:55;;;;;;;1.15;0.88;;;14.20;99.90;;;;;;7390879;19;20161;-74
2022/11/16 11:00:53;;;;;;;3.75;0.90;;;14.30;99.90;;;;;;7390669;19;20143;-73
2022/11/16 11:03:30;;;;;;;1.58;0.90;;;14.40;99.90;;;;;;7388332;19;20474;-75
2022/11/16 11:05:57;;;;;;;8.27;1.25;;;14.40;99.90;;;;;;7386937;19;20158;-74
2022/11/16 11:08:31;;;;;;;1.30;0.80;;;14.50;99.90;;;;;;7390673;19;20142;-73
2022/11/16 11:12:36;;;;;;;1.20;0.70;;;14.60;99.90;;;;;;7391002;19;20156;-73
2022/11/16 11:14:09;;;;;;;0.80;0.60;;;14.80;99.90;;;;;;7388438;19;20629;-72
2022/11/16 11:16:35;;;;;;;4.35;2.80;;;14.90;99.90;;;;;;7391371;19;20259;-73
2022/11/16 11:19:18;;;;;;;1.45;1.02;;;14.80;99.90;;;;;;7390464;19;20143;-73
2022/11/16 11:21:45;;;;;;;1.67;1.15;;;15.00;99.90;;;;;;7390416;19;20607;-73
2022/11/16 11:24:16;;;;;;;1.77;0.80;;;14.90;99.90;;;;;;7389964;19;20142;-72
2022/11/16 11:26:47;;;;;;;1.05;0.75;;;14.90;99.90;;;;;;7386270;19;20151;-74
2022/11/16 11:29:19;;;;;;;1.50;0.77;;;15.00;99.90;;;;;;7391496;19;20526;-73
2022/11/16 11:31:49;;;;;;;2.20;1.83;;;14.80;99.90;;;;;;7390781;19;20155;-72
2022/11/16 11:34:27;;;;;;;1.95;1.15;;;14.60;99.90;;;;;;7388027;19;20157;-73
2022/11/16 11:37:00;;;;;;;2.55;1.00;;;14.60;99.90;;;;;;7388326;19;20155;-73
2022/11/16 11:39:29;;;;;;;3.80;0.90;;;14.70;99.90;;;;;;7391202;19;20754;-73
2022/11/16 11:42:18;;;;;;;1.65;1.00;;;14.70;99.90;;;;;;7391451;19;20633;-74
2022/11/16 11:45:06;;;;;;;1.23;0.90;;;14.60;99.90;;;;;;7389830;19;20142;-72
2022/11/16 11:47:47;;;;;;;5.03;1.52;;;14.40;99.90;;;;;;7387762;19;20155;-74
2022/11/16 11:50:41;;;;;;;1.98;0.70;;;14.40;99.90;;;;;;7390018;19;20139;-75
2022/11/16 11:53:22;;;;;;;1.55;0.90;;;14.50;99.90;;;;;;7388479;19;20138;-73
2022/11/16 11:55:56;;;;;;;3.80;0.77;;;14.70;99.90;;;;;;7387366;19;20167;-72
2022/11/16 11:58:28;;;;;;;1.05;0.70;;;14.80;99.90;;;;;;7385465;19;20163;-74
2022/11/16 12:00:57;;;;;;;1.63;0.85;;;14.70;99.90;;;;;;7384783;19;20131;-73
2022/11/16 12:04:10;;;;;;;1.42;0.70;;;14.90;99.90;;;;;;7388390;19;20621;-74
2022/11/16 12:07:20;;;;;;;3.42;1.00;;;14.80;99.90;;;;;;7379126;19;20141;-75
2022/11/16 12:10:06;;;;;;;1.30;0.80;;;14.70;99.90;;;;;;7377244;19;20183;-74
2022/11/16 12:12:47;;;;;;;1.80;0.80;;;14.70;99.90;;;;;;7385521;19;20141;-73
2022/11/16 12:15:31;;;;;;;1.42;0.60;;;14.50;99.90;;;;;;7389697;19;20529;-72
2022/11/16 12:18:25;;;;;;;1.73;0.80;;;14.50;99.90;;;;;;7389421;19;20194;-73
2022/11/16 12:21:06;;;;;;;1.98;0.95;;;14.50;99.90;;;;;;7386770;19;20181;-73
2022/11/16 12:23:48;;;;;;;1.48;0.88;;;14.80;99.90;;;;;;7386882;19;20803;-71
2022/11/16 12:26:27;;;;;;;1.30;0.90;;;15.00;99.90;;;;;;7388184;19;20900;-73
2022/11/16 12:28:56;;;;;;;1.50;0.52;;;15.30;99.90;;;;;;7387581;19;20134;-72
2022/11/16 12:31:28;;;;;;;2.90;0.50;;;15.40;99.90;;;;;;7389614;19;20159;-74
2022/11/16 12:34:02;;;;;;;1.67;0.65;;;15.60;99.90;;;;;;7384733;19;20391;-74
2022/11/16 12:36:57;;;;;;;1.23;0.50;;;15.70;99.90;;;;;;7385658;19;20150;-73
2022/11/16 12:39:50;;;;;;;1.30;0.50;;;15.80;99.90;;;;;;7387281;19;20138;-74
2022/11/16 12:42:44;;;;;;;1.38;0.52;;;15.80;99.90;;;;;;7384508;19;20143;-72
2022/11/16 12:45:42;;;;;;;1.73;0.65;;;15.50;99.90;;;;;;7383500;19;20730;-74
2022/11/16 12:48:40;;;;;;;1.77;1.00;;;15.40;99.90;;;;;;7385094;19;20167;-74
2022/11/16 12:51:15;;;;;;;2.42;0.82;;;15.40;99.90;;;;;;7386968;19;20139;-73
2022/11/16 12:53:46;;;;;;;1.67;0.85;;;15.50;99.90;;;;;;7387695;19;20508;-75
2022/11/16 12:56:21;;;;;;;2.53;1.10;;;15.50;99.90;;;;;;7385772;19;20138;-73
2022/11/16 12:58:56;;;;;;;2.65;0.70;;;15.60;99.90;;;;;;7384650;19;20150;-74
2022/11/16 13:01:37;;;;;;;0.95;0.68;;;15.60;99.90;;;;;;7387743;19;20142;-76
2022/11/16 13:04:20;;;;;;;4.70;0.70;;;15.60;99.90;;;;;;7386822;19;20557;-74
2022/11/16 13:06:55;;;;;;;1.30;0.50;;;15.60;99.90;;;;;;7381069;19;20149;-74
2022/11/16 13:09:31;;;;;;;1.10;0.60;;;15.60;99.90;;;;;;7392143;19;20137;-74
2022/11/16 13:12:01;;;;;;;1.70;0.90;;;15.70;99.90;;;;;;7392080;19;20134;-72
2022/11/16 13:14:32;;;;;;;1.33;0.57;;;15.80;99.90;;;;;;7395715;19;20146;-73
2022/11/16 13:17:00;;;;;;;1.23;0.55;;;15.80;99.90;;;;;;7393878;19;20131;-72
2022/11/16 13:19:27;;;;;;;1.70;0.60;;;15.80;99.90;;;;;;7392813;19;20138;-73
2022/11/16 13:22:16;;;;;;;1.23;0.65;;;16.10;99.90;;;;;;7393880;19;20138;-72
2022/11/16 13:24:57;;;;;;;1.95;0.60;;;16.20;99.90;;;;;;7394559;19;20145;-73
2022/11/16 13:27:52;;;;;;;1.58;0.70;;;16.00;99.90;;;;;;7390970;19;20874;-74
2022/11/16 13:30:49;;;;;;;2.28;1.23;;;15.90;99.90;;;;;;7396358;19;20481;-74
2022/11/16 13:33:27;;;;;;;1.20;0.43;;;16.00;99.90;;;;;;7392620;19;20151;-73
2022/11/16 13:35:53;;;;;;;3.75;1.00;;;15.80;99.90;;;;;;7393897;19;20130;-72
2022/11/16 13:38:48;;;;;;;1.83;0.65;;;15.90;99.90;;;;;;7388156;19;20619;-73
2022/11/16 13:41:33;;;;;;;2.75;0.77;;;15.80;99.90;;;;;;7383256;19;20143;-73
2022/11/16 13:44:00;;;;;;;1.75;0.60;;;15.70;99.90;;;;;;7388540;19;20167;-72
2022/11/16 13:46:49;;;;;;;1.77;0.73;;;15.60;99.90;;;;;;7385998;19;20517;-74
2022/11/16 13:49:32;;;;;;;5.20;0.95;;;15.40;99.90;;;;;;7387070;19;20633;-72
2022/11/16 13:52:02;;;;;;;4.15;1.08;;;15.50;99.90;;;;;;7385916;19;20142;-73